Arctic Bay — 9HTD8 — position and weather

sailwx.info

Track history (hours):
 
Tides and Currents Weather Stations Pressure Air Temp Water Temp Dewpoint Dewpoint Depression Visibility Wind Speed Wind Dir Waves Ship Positions

Arctic Bay

Last reported at 2015-May-30 11:33 UTC. Time now 2015-May-30 20:31 UTC.
Position N 60°09' E 027°40'.

Length 182 m; draft 7.5 m.

Type: Tanker. MMSI: 256396000.

Date/timePositionNaut miles runAvg speedWind from/ knotsBaromVisibWave heightAir tempDewpointWater temp
2015-May-30 11:33N 60°09' E 027°40'1615.6
2015-May-30 10:33N 60°01' E 027°13'1514.5
2015-May-30 09:33N 59°59' E 026°45'1715.4
2015-May-30 08:29N 59°56' E 026°12'3515.8
2015-May-30 06:14N 59°47' E 025°04'1115.7
2015-May-30 05:33N 59°45' E 024°43'1615.6
2015-May-30 04:33N 59°42' E 024°12'1615.7
2015-May-30 03:33N 59°36' E 023°44'3615.7
2015-May-30 01:17N 59°24' E 022°37'18 0.4
2015-May-28 04:32N 59°35' E 023°06'1110.7
2015-May-28 03:33N 59°38' E 023°26'1110.6
2015-May-28 02:30N 59°41' E 023°47'1211.1
2015-May-28 01:27N 59°44' E 024°09'1011.3
2015-May-28 00:32N 59°47' E 024°29'4410.9
2015-May-27 20:30N 59°56' E 025°55'1010.6
2015-May-27 19:34N 59°59' E 026°14'1110.7
2015-May-27 18:34N 60°01' E 026°35'1010.4
2015-May-27 17:33N 59°60' E 026°55'1010.1
2015-May-27 16:34N 60°03' E 027°15'1110.8
2015-May-27 15:33N 60°08' E 027°33'5 0.7
2015-May-27 08:32N 60°05' E 027°27'1110.9
2015-May-27 07:33N 59°59' E 027°09'1010.2
2015-May-27 06:33N 59°59' E 026°48'1412.3
2015-May-27 05:24N 59°57' E 026°21'910.9
2015-May-27 04:33N 59°54' E 026°03'4710.8
2015-May-27 00:12N 59°44' E 024°31'710.8
2015-May-26 23:32N 59°42' E 024°17'1210.7
2015-May-26 22:25N 59°38' E 023°55'910.7
2015-May-26 21:33N 59°35' E 023°38'33910.5
2015-May-25 13:26N 55°46' E 015°51'1010.9
2015-May-25 12:31N 55°41' E 015°35'1110.9
2015-May-25 11:32N 55°37' E 015°18'1111.0
2015-May-25 10:33N 55°31' E 015°02'1110.9
2015-May-25 09:33N 55°26' E 014°45'1110.7
2015-May-25 08:33N 55°19' E 014°31'1010.5
2015-May-25 07:33N 55°11' E 014°18'1211.6
2015-May-25 06:33N 55°11' E 013°58'1212.3
2015-May-25 05:33N 55°12' E 013°36'1111.0
2015-May-25 04:33N 55°13' E 013°17'1110.9
2015-May-25 03:33N 55°14' E 012°58'1110.6
2015-May-25 02:33N 55°17' E 012°40'9 9.3
2015-May-25 01:33N 55°27' E 012°41'10 9.7
2015-May-25 00:33N 55°37' E 012°42'1111.0
2015-May-24 23:33N 55°48' E 012°42'1212.4
2015-May-24 22:33N 55°60' E 012°38'9 9.5
2015-May-24 21:34N 56°08' E 012°29'9 8.9
2015-May-24 20:33N 56°13' E 012°15'8 8.4
2015-May-24 19:33N 56°18' E 012°03'1010.4
2015-May-24 18:33N 56°28' E 011°59'1010.2
2015-May-24 17:33N 56°38' E 011°55'1010.1
2015-May-24 16:33N 56°48' E 011°50'1010.0
2015-May-24 15:33N 56°57' E 011°44'10 9.9
2015-May-24 14:33N 57°07' E 011°38'1010.4
2015-May-24 13:34N 57°16' E 011°32'1010.4
2015-May-24 12:34N 57°26' E 011°26'1111.1
2015-May-24 11:33N 57°34' E 011°11'1111.5
2015-May-24 10:33N 57°42' E 010°55'1111.2
2015-May-24 09:33N 57°47' E 010°37'1211.9
2015-May-24 08:31N 57°47' E 010°14'2311.6
2015-May-24 06:33N 57°42' E 009°32'2511.8
2015-May-24 04:24N 57°28' E 008°52'1010.9
2015-May-24 03:27N 57°21' E 008°37'1010.7
2015-May-24 02:31N 57°15' E 008°23'11710.7
2015-May-23 15:32N 55°27' E 006°60'1010.8
2015-May-23 14:33N 55°17' E 007°01'1211.3
2015-May-23 13:32N 55°05' E 007°03'1010.6
2015-May-23 12:33N 54°55' E 007°00'10 9.7
2015-May-23 11:33N 54°45' E 007°00'11 9.8
2015-May-23 10:26N 54°34' E 007°00'9 9.6
2015-May-23 09:31N 54°26' E 007°04'1010.0
2015-May-23 08:33N 54°18' E 007°13'1111.1
2015-May-23 07:33N 54°13' E 007°30'1211.9
2015-May-23 06:33N 54°07' E 007°48'1111.2
2015-May-23 05:33N 54°01' E 008°04'1413.5
2015-May-23 04:33N 53°59' E 008°27'1212.4
2015-May-23 03:33N 53°52' E 008°44'1110.8
2015-May-23 02:33N 53°52' E 009°02'9 9.3
2015-May-23 01:33N 53°52' E 009°18'1111.4
2015-May-23 00:33N 53°42' E 009°29'1211.6
2015-May-22 23:33N 53°34' E 009°43'8 8.4
2015-May-22 22:33N 53°32' E 009°56'2 1.6
2015-May-22 21:30N 53°30' E 009°57'0 0.0
2015-May-22 20:30N 53°30' E 009°57'0 0.0
2015-May-22 19:27N 53°30' E 009°57'0 0.0
2015-May-22 18:30N 53°30' E 009°57'0 0.0
2015-May-22 17:30N 53°30' E 009°57'0 0.0
2015-May-22 16:30N 53°30' E 009°57'0 0.0
2015-May-22 15:30N 53°30' E 009°57'0 0.0
2015-May-22 14:06N 53°30' E 009°57'0 0.0
2015-May-22 13:30N 53°30' E 009°57'0 0.0
2015-May-22 12:21N 53°30' E 009°57'0 0.0
2015-May-22 11:24N 53°30' E 009°57'0 0.0
2015-May-22 10:30N 53°30' E 009°57'0 0.0
2015-May-22 09:30N 53°30' E 009°57'0 0.0
2015-May-22 04:20N 53°30' E 009°57'0 0.0
2015-May-22 03:22N 53°30' E 009°57'0 0.0
2015-May-22 02:16N 53°30' E 009°57'0 0.0
2015-May-22 01:30N 53°30' E 009°57'0 0.0
2015-May-22 00:30N 53°30' E 009°57'0 0.0
2015-May-21 23:33N 53°30' E 009°57'0 0.0
2015-May-21 22:33N 53°30' E 009°57'0 0.0
2015-May-21 21:24N 53°30' E 009°57'0 0.0
2015-May-21 20:30N 53°30' E 009°57'0 0.0
2015-May-21 19:30N 53°30' E 009°57'0 0.0
2015-May-21 18:33N 53°30' E 009°57'0 0.0
2015-May-21 17:30N 53°30' E 009°57'0 0.0
2015-May-21 16:27N 53°30' E 009°57'0 0.0
2015-May-21 15:30N 53°30' E 009°57'0 0.0
2015-May-21 14:32N 53°30' E 009°57'3 3.0
2015-May-21 13:32N 53°32' E 009°54'8 7.8
2015-May-21 12:33N 53°34' E 009°42'9 7.7
2015-May-21 11:25N 53°40' E 009°31'7 7.8
2015-May-21 10:33N 53°45' E 009°24'8 8.1
2015-May-21 09:33N 53°52' E 009°17'7 7.2
2015-May-21 08:33N 53°52' E 009°05'8 8.2
2015-May-21 07:34N 53°50' E 008°51'6 5.8
2015-May-21 06:33N 53°53' E 008°42'6 5.8
2015-May-21 05:33N 53°57' E 008°36'8 8.2
2015-May-21 04:33N 53°59' E 008°22'1313.3
2015-May-21 03:33N 54°01' E 008°00'1211.7
2015-May-21 02:33N 54°07' E 007°43'1212.3
2015-May-21 01:33N 54°13' E 007°25'1312.7
2015-May-21 00:33N 54°25' E 007°15'1413.6
2015-May-20 23:33N 54°38' E 007°10'1413.7
2015-May-20 22:33N 54°52' E 007°06'1413.7
2015-May-20 21:33N 55°05' E 007°02'1413.5
2015-May-20 20:32N 55°19' E 006°60'1313.1
2015-May-20 19:32N 55°32' E 006°59'  
Track history (hours):
 
Tides and Currents Weather Stations Pressure Air Temp Water Temp Dewpoint Dewpoint Depression Visibility Wind Speed Wind Dir Waves Ship Positions

Arctic Bay

Last reported at 2015-May-30 11:33 UTC. Time now 2015-May-30 20:31 UTC.
Position N 60°09' E 027°40'.

Length 182 m; draft 7.5 m.

Type: Tanker. MMSI: 256396000.

Date/timePositionNaut miles runAvg speedWind from/ knotsBaromVisibWave heightAir tempDewpointWater temp
2015-May-30 11:33N 60°09' E 027°40'1615.6
2015-May-30 10:33N 60°01' E 027°13'1514.5
2015-May-30 09:33N 59°59' E 026°45'1715.4
2015-May-30 08:29N 59°56' E 026°12'3515.8
2015-May-30 06:14N 59°47' E 025°04'1115.7
2015-May-30 05:33N 59°45' E 024°43'1615.6
2015-May-30 04:33N 59°42' E 024°12'1615.7
2015-May-30 03:33N 59°36' E 023°44'3615.7
2015-May-30 01:17N 59°24' E 022°37'18 0.4
2015-May-28 04:32N 59°35' E 023°06'1110.7
2015-May-28 03:33N 59°38' E 023°26'1110.6
2015-May-28 02:30N 59°41' E 023°47'1211.1
2015-May-28 01:27N 59°44' E 024°09'1011.3
2015-May-28 00:32N 59°47' E 024°29'4410.9
2015-May-27 20:30N 59°56' E 025°55'1010.6
2015-May-27 19:34N 59°59' E 026°14'1110.7
2015-May-27 18:34N 60°01' E 026°35'1010.4
2015-May-27 17:33N 59°60' E 026°55'1010.1
2015-May-27 16:34N 60°03' E 027°15'1110.8
2015-May-27 15:33N 60°08' E 027°33'5 0.7
2015-May-27 08:32N 60°05' E 027°27'1110.9
2015-May-27 07:33N 59°59' E 027°09'1010.2
2015-May-27 06:33N 59°59' E 026°48'1412.3
2015-May-27 05:24N 59°57' E 026°21'910.9
2015-May-27 04:33N 59°54' E 026°03'4710.8
2015-May-27 00:12N 59°44' E 024°31'710.8
2015-May-26 23:32N 59°42' E 024°17'1210.7
2015-May-26 22:25N 59°38' E 023°55'910.7
2015-May-26 21:33N 59°35' E 023°38'33910.5
2015-May-25 13:26N 55°46' E 015°51'1010.9
2015-May-25 12:31N 55°41' E 015°35'1110.9
2015-May-25 11:32N 55°37' E 015°18'1111.0
2015-May-25 10:33N 55°31' E 015°02'1110.9
2015-May-25 09:33N 55°26' E 014°45'1110.7
2015-May-25 08:33N 55°19' E 014°31'1010.5
2015-May-25 07:33N 55°11' E 014°18'1211.6
2015-May-25 06:33N 55°11' E 013°58'1212.3
2015-May-25 05:33N 55°12' E 013°36'1111.0
2015-May-25 04:33N 55°13' E 013°17'1110.9
2015-May-25 03:33N 55°14' E 012°58'1110.6
2015-May-25 02:33N 55°17' E 012°40'9 9.3
2015-May-25 01:33N 55°27' E 012°41'10 9.7
2015-May-25 00:33N 55°37' E 012°42'1111.0
2015-May-24 23:33N 55°48' E 012°42'1212.4
2015-May-24 22:33N 55°60' E 012°38'9 9.5
2015-May-24 21:34N 56°08' E 012°29'9 8.9
2015-May-24 20:33N 56°13' E 012°15'8 8.4
2015-May-24 19:33N 56°18' E 012°03'1010.4
2015-May-24 18:33N 56°28' E 011°59'1010.2
2015-May-24 17:33N 56°38' E 011°55'1010.1
2015-May-24 16:33N 56°48' E 011°50'1010.0
2015-May-24 15:33N 56°57' E 011°44'10 9.9
2015-May-24 14:33N 57°07' E 011°38'1010.4
2015-May-24 13:34N 57°16' E 011°32'1010.4
2015-May-24 12:34N 57°26' E 011°26'1111.1
2015-May-24 11:33N 57°34' E 011°11'1111.5
2015-May-24 10:33N 57°42' E 010°55'1111.2
2015-May-24 09:33N 57°47' E 010°37'1211.9
2015-May-24 08:31N 57°47' E 010°14'2311.6
2015-May-24 06:33N 57°42' E 009°32'2511.8
2015-May-24 04:24N 57°28' E 008°52'1010.9
2015-May-24 03:27N 57°21' E 008°37'1010.7
2015-May-24 02:31N 57°15' E 008°23'11710.7
2015-May-23 15:32N 55°27' E 006°60'1010.8
2015-May-23 14:33N 55°17' E 007°01'1211.3
2015-May-23 13:32N 55°05' E 007°03'1010.6
2015-May-23 12:33N 54°55' E 007°00'10 9.7
2015-May-23 11:33N 54°45' E 007°00'11 9.8
2015-May-23 10:26N 54°34' E 007°00'9 9.6
2015-May-23 09:31N 54°26' E 007°04'1010.0
2015-May-23 08:33N 54°18' E 007°13'1111.1
2015-May-23 07:33N 54°13' E 007°30'1211.9
2015-May-23 06:33N 54°07' E 007°48'1111.2
2015-May-23 05:33N 54°01' E 008°04'1413.5
2015-May-23 04:33N 53°59' E 008°27'1212.4
2015-May-23 03:33N 53°52' E 008°44'1110.8
2015-May-23 02:33N 53°52' E 009°02'9 9.3
2015-May-23 01:33N 53°52' E 009°18'1111.4
2015-May-23 00:33N 53°42' E 009°29'1211.6
2015-May-22 23:33N 53°34' E 009°43'8 8.4
2015-May-22 22:33N 53°32' E 009°56'2 1.6
2015-May-22 21:30N 53°30' E 009°57'0 0.0
2015-May-22 20:30N 53°30' E 009°57'0 0.0
2015-May-22 19:27N 53°30' E 009°57'0 0.0
2015-May-22 18:30N 53°30' E 009°57'0 0.0
2015-May-22 17:30N 53°30' E 009°57'0 0.0
2015-May-22 16:30N 53°30' E 009°57'0 0.0
2015-May-22 15:30N 53°30' E 009°57'0 0.0
2015-May-22 14:06N 53°30' E 009°57'0 0.0
2015-May-22 13:30N 53°30' E 009°57'0 0.0
2015-May-22 12:21N 53°30' E 009°57'0 0.0
2015-May-22 11:24N 53°30' E 009°57'0 0.0
2015-May-22 10:30N 53°30' E 009°57'0 0.0
2015-May-22 09:30N 53°30' E 009°57'0 0.0
2015-May-22 04:20N 53°30' E 009°57'0 0.0
2015-May-22 03:22N 53°30' E 009°57'0 0.0
2015-May-22 02:16N 53°30' E 009°57'0 0.0
2015-May-22 01:30N 53°30' E 009°57'0 0.0
2015-May-22 00:30N 53°30' E 009°57'0 0.0
2015-May-21 23:33N 53°30' E 009°57'0 0.0
2015-May-21 22:33N 53°30' E 009°57'0 0.0
2015-May-21 21:24N 53°30' E 009°57'0 0.0
2015-May-21 20:30N 53°30' E 009°57'0 0.0
2015-May-21 19:30N 53°30' E 009°57'0 0.0
2015-May-21 18:33N 53°30' E 009°57'0 0.0
2015-May-21 17:30N 53°30' E 009°57'0 0.0
2015-May-21 16:27N 53°30' E 009°57'0 0.0
2015-May-21 15:30N 53°30' E 009°57'0 0.0
2015-May-21 14:32N 53°30' E 009°57'3 3.0
2015-May-21 13:32N 53°32' E 009°54'8 7.8
2015-May-21 12:33N 53°34' E 009°42'9 7.7
2015-May-21 11:25N 53°40' E 009°31'7 7.8
2015-May-21 10:33N 53°45' E 009°24'8 8.1
2015-May-21 09:33N 53°52' E 009°17'7 7.2
2015-May-21 08:33N 53°52' E 009°05'8 8.2
2015-May-21 07:34N 53°50' E 008°51'6 5.8
2015-May-21 06:33N 53°53' E 008°42'6 5.8
2015-May-21 05:33N 53°57' E 008°36'8 8.2
2015-May-21 04:33N 53°59' E 008°22'1313.3
2015-May-21 03:33N 54°01' E 008°00'1211.7
2015-May-21 02:33N 54°07' E 007°43'1212.3
2015-May-21 01:33N 54°13' E 007°25'1312.7
2015-May-21 00:33N 54°25' E 007°15'1413.6
2015-May-20 23:33N 54°38' E 007°10'1413.7
2015-May-20 22:33N 54°52' E 007°06'1413.7
2015-May-20 21:33N 55°05' E 007°02'1413.5
2015-May-20 20:32N 55°19' E 006°60'1313.1
2015-May-20 19:32N 55°32' E 006°59'  

Dump ship's entire track history